Time;durP1;ratioP1;P1;durP2;ratioP2;P2;SDS_P1;SDS_P2;PMS_P1;PMS_P2;Temp;Humidity;BMP_temperature;BMP_pressure;BME280_temperature;BME280_humidity;BME280_pressure;Samples;Min_cycle;Max_cycle;Signal;HPM_P1;HPM_P2
2022/05/05 00:01:49;;;;;;;;;;;20.30;36.80;;;;;;5041654;28;19926;-51
2022/05/05 00:04:18;;;;;;;;;;;20.30;36.80;;;;;;5057704;28;19921;-47
2022/05/05 00:06:44;;;;;;;;;;;20.30;36.80;;;;;;5057068;28;19925;-46
2022/05/05 00:09:13;;;;;;;;;;;20.30;36.80;;;;;;5058381;28;20256;-48
2022/05/05 00:14:28;;;;;;;;;;;20.30;36.80;;;;;;5075904;28;19920;-48
2022/05/05 00:16:56;;;;;;;;;;;20.30;36.80;;;;;;5057831;28;20404;-46
2022/05/05 00:19:22;;;;;;;;;;;20.30;36.80;;;;;;5057476;28;19927;-49
2022/05/05 00:21:49;;;;;;;;;;;20.30;36.80;;;;;;5057421;28;20057;-51
2022/05/05 00:24:17;;;;;;;;;;;20.30;36.80;;;;;;5057222;28;19928;-51
2022/05/05 00:26:44;;;;;;;;;;;20.30;36.80;;;;;;5057401;28;19920;-46
2022/05/05 00:29:11;;;;;;;;;;;20.30;36.80;;;;;;5075321;28;20241;-48
2022/05/05 00:31:37;;;;;;;;;;;20.30;36.80;;;;;;5075873;28;19927;-46
2022/05/05 00:34:04;;;;;;;;;;;20.30;36.80;;;;;;5058484;28;20077;-48
2022/05/05 00:36:31;;;;;;;;;;;20.30;36.80;;;;;;5057413;28;19920;-47
2022/05/05 00:38:57;;;;;;;;;;;20.30;36.80;;;;;;5075869;28;19925;-46
2022/05/05 00:41:25;;;;;;;;;;;20.30;36.80;;;;;;5058550;28;20015;-46
2022/05/05 00:43:52;;;;;;;;;;;20.30;36.80;;;;;;5057445;28;20392;-46
2022/05/05 00:46:19;;;;;;;;;;;20.30;36.70;;;;;;5075020;28;20007;-47
2022/05/05 00:48:46;;;;;;;;;;;20.30;36.70;;;;;;5074597;28;19928;-48
2022/05/05 00:51:12;;;;;;;;;;;20.30;36.70;;;;;;5056963;28;20019;-47
2022/05/05 00:53:39;;;;;;;;;;;20.30;36.80;;;;;;5057142;28;19969;-47
2022/05/05 00:56:06;;;;;;;;;;;20.30;36.80;;;;;;5074387;28;19920;-47
2022/05/05 00:58:34;;;;;;;;;;;20.30;36.80;;;;;;5057130;28;19964;-50
2022/05/05 01:01:03;;;;;;;;;;;20.30;36.80;;;;;;5056147;28;20273;-46
2022/05/05 01:03:29;;;;;;;;;;;20.30;36.80;;;;;;5057413;28;19946;-46
2022/05/05 01:05:56;;;;;;;;;;;20.30;36.80;;;;;;5074633;28;20015;-46
2022/05/05 01:08:23;;;;;;;;;;;20.30;36.80;;;;;;5057573;28;19928;-47
2022/05/05 01:10:49;;;;;;;;;;;20.30;36.80;;;;;;5058519;28;20349;-47
2022/05/05 01:13:16;;;;;;;;;;;20.30;36.80;;;;;;5060351;28;20434;-47
2022/05/05 01:15:44;;;;;;;;;;;20.30;36.80;;;;;;5061276;28;19920;-49
2022/05/05 01:18:11;;;;;;;;;;;20.30;36.80;;;;;;5060660;28;19924;-48
2022/05/05 01:20:43;;;;;;;;;;;20.30;36.80;;;;;;5061227;28;19920;-46
2022/05/05 01:23:11;;;;;;;;;;;20.30;36.80;;;;;;5060497;28;20428;-48
2022/05/05 01:28:22;;;;;;;;;;;20.30;36.80;;;;;;5061033;28;19921;-48
2022/05/05 01:30:49;;;;;;;;;;;20.30;36.80;;;;;;5060528;28;19935;-48
2022/05/05 01:33:16;;;;;;;;;;;20.30;36.80;;;;;;5078385;28;19999;-49
2022/05/05 01:35:43;;;;;;;;;;;20.30;36.80;;;;;;5060409;28;19988;-48
2022/05/05 01:38:11;;;;;;;;;;;20.30;36.80;;;;;;5060263;28;19927;-51
2022/05/05 01:40:39;;;;;;;;;;;20.30;36.80;;;;;;5078249;28;19962;-52
2022/05/05 01:43:06;;;;;;;;;;;20.30;36.80;;;;;;5060423;28;19927;-53
2022/05/05 01:45:32;;;;;;;;;;;20.30;36.80;;;;;;5078347;28;19928;-47
2022/05/05 01:47:59;;;;;;;;;;;20.30;36.80;;;;;;5077957;28;20015;-48
2022/05/05 01:50:26;;;;;;;;;;;20.30;36.80;;;;;;5078221;28;19964;-49
2022/05/05 01:52:53;;;;;;;;;;;20.30;36.80;;;;;;5059886;28;19974;-48
2022/05/05 01:55:21;;;;;;;;;;;20.30;36.70;;;;;;5059721;28;20046;-46
2022/05/05 01:57:48;;;;;;;;;;;20.30;36.80;;;;;;5060427;28;20308;-46
2022/05/05 02:00:15;;;;;;;;;;;20.30;36.80;;;;;;5059898;28;19966;-49
2022/05/05 02:02:44;;;;;;;;;;;20.30;36.70;;;;;;5058212;28;20365;-47
2022/05/05 02:05:10;;;;;;;;;;;20.30;36.80;;;;;;5059842;28;19951;-48
2022/05/05 02:07:37;;;;;;;;;;;20.30;36.70;;;;;;5059526;28;20312;-50
2022/05/05 02:10:04;;;;;;;;;;;20.30;36.70;;;;;;5076613;28;20349;-48
2022/05/05 02:12:32;;;;;;;;;;;20.30;36.70;;;;;;5060552;28;20312;-50
2022/05/05 02:14:59;;;;;;;;;;;20.30;36.70;;;;;;5060142;28;19920;-53
2022/05/05 02:17:25;;;;;;;;;;;20.30;36.70;;;;;;5059339;28;19992;-50
2022/05/05 02:19:52;;;;;;;;;;;20.30;36.70;;;;;;5059443;28;20036;-49
2022/05/05 02:22:18;;;;;;;;;;;20.30;36.70;;;;;;5058121;28;19924;-53
2022/05/05 02:24:45;;;;;;;;;;;20.30;36.80;;;;;;5060067;28;20019;-46
2022/05/05 02:27:12;;;;;;;;;;;20.30;36.70;;;;;;5059277;28;19920;-48
2022/05/05 02:29:42;;;;;;;;;;;20.30;36.80;;;;;;5077176;28;20015;-46
2022/05/05 02:32:09;;;;;;;;;;;20.30;36.80;;;;;;5077284;28;20352;-48
2022/05/05 02:34:35;;;;;;;;;;;20.30;36.70;;;;;;5059676;28;20325;-48
2022/05/05 02:39:46;;;;;;;;;;;20.30;36.70;;;;;;5057074;28;19924;-47
2022/05/05 02:42:13;;;;;;;;;;;20.30;36.70;;;;;;5079513;28;20025;-49
2022/05/05 02:44:41;;;;;;;;;;;20.30;36.80;;;;;;5078859;28;20060;-48
2022/05/05 02:47:08;;;;;;;;;;;20.30;36.80;;;;;;5097273;28;19924;-52
2022/05/05 02:49:35;;;;;;;;;;;20.30;36.80;;;;;;5078897;28;19927;-50
2022/05/05 02:52:02;;;;;;;;;;;20.30;36.70;;;;;;5097428;28;19920;-49
2022/05/05 02:57:13;;;;;;;;;;;20.30;36.70;;;;;;5079697;28;19924;-50
2022/05/05 02:59:41;;;;;;;;;;;20.30;36.70;;;;;;5078705;28;19920;-49
2022/05/05 03:02:08;;;;;;;;;;;20.30;36.80;;;;;;5079988;28;19948;-51
2022/05/05 03:04:34;;;;;;;;;;;20.30;36.80;;;;;;5095327;28;19920;-52
2022/05/05 03:07:01;;;;;;;;;;;20.30;36.70;;;;;;5097607;28;20380;-47
2022/05/05 03:09:28;;;;;;;;;;;20.30;36.70;;;;;;5085714;28;19927;-50
2022/05/05 03:11:54;;;;;;;;;;;20.30;36.70;;;;;;5063726;28;19920;-47
2022/05/05 03:14:21;;;;;;;;;;;20.30;36.80;;;;;;5081334;28;20268;-49
2022/05/05 03:16:49;;;;;;;;;;;20.30;36.70;;;;;;5076581;28;20299;-52
2022/05/05 03:19:16;;;;;;;;;;;20.30;36.70;;;;;;5076646;28;19952;-47
2022/05/05 03:21:42;;;;;;;;;;;20.30;36.70;;;;;;5058311;28;19928;-49
2022/05/05 03:24:09;;;;;;;;;;;20.30;36.80;;;;;;5058312;28;19978;-53
2022/05/05 03:26:36;;;;;;;;;;;20.30;36.70;;;;;;5076266;28;19921;-49
2022/05/05 03:29:04;;;;;;;;;;;20.30;36.80;;;;;;5059040;28;19920;-47
2022/05/05 03:31:31;;;;;;;;;;;20.30;36.70;;;;;;5058037;28;20273;-49
2022/05/05 03:33:59;;;;;;;;;;;20.30;36.70;;;;;;5058075;28;19930;-48
2022/05/05 03:36:26;;;;;;;;;;;20.30;36.80;;;;;;5057593;28;20251;-51
2022/05/05 03:38:54;;;;;;;;;;;20.30;36.70;;;;;;5058596;28;19959;-49
2022/05/05 03:41:21;;;;;;;;;;;20.30;36.70;;;;;;5058213;28;20011;-51
2022/05/05 03:43:47;;;;;;;;;;;20.30;36.70;;;;;;5058076;28;19928;-48
2022/05/05 03:46:14;;;;;;;;;;;20.30;36.70;;;;;;5058496;28;20310;-47
2022/05/05 03:48:41;;;;;;;;;;;20.30;36.70;;;;;;5075941;28;20312;-49
2022/05/05 03:51:09;;;;;;;;;;;20.30;36.70;;;;;;5075391;28;20340;-48
2022/05/05 03:53:36;;;;;;;;;;;20.30;36.70;;;;;;5055781;28;19958;-51
2022/05/05 03:56:04;;;;;;;;;;;20.30;36.70;;;;;;5057527;28;19927;-48
2022/05/05 03:58:30;;;;;;;;;;;20.30;36.80;;;;;;5058177;28;19966;-47
2022/05/05 04:00:57;;;;;;;;;;;20.30;36.70;;;;;;5057342;28;19924;-47
2022/05/05 04:03:33;;;;;;;;;;;20.30;36.80;;;;;;5069562;28;19955;-49
2022/05/05 04:06:00;;;;;;;;;;;20.30;36.70;;;;;;5094353;28;20002;-49
2022/05/05 04:08:28;;;;;;;;;;;20.30;36.70;;;;;;5094542;28;19920;-50
2022/05/05 04:10:55;;;;;;;;;;;20.30;36.70;;;;;;5077707;28;19946;-46
2022/05/05 04:13:22;;;;;;;;;;;20.30;36.70;;;;;;5095747;28;19920;-46
2022/05/05 04:15:48;;;;;;;;;;;20.30;36.70;;;;;;5077993;28;19951;-47
2022/05/05 04:18:15;;;;;;;;;;;20.30;36.70;;;;;;5093241;28;19920;-47
2022/05/05 04:20:42;;;;;;;;;;;20.30;36.70;;;;;;5077349;28;19974;-48
2022/05/05 04:23:09;;;;;;;;;;;20.30;36.70;;;;;;5095506;28;20022;-50
2022/05/05 04:25:37;;;;;;;;;;;20.30;36.70;;;;;;5078496;28;19951;-50
2022/05/05 04:28:04;;;;;;;;;;;20.30;36.70;;;;;;5077514;28;19965;-47
2022/05/05 04:30:31;;;;;;;;;;;20.30;37.30;;;;;;5078387;28;19928;-49
2022/05/05 04:32:58;;;;;;;;;;;20.30;36.70;;;;;;5094543;28;20022;-50
2022/05/05 04:35:25;;;;;;;;;;;20.30;36.70;;;;;;5077359;28;19926;-49
2022/05/05 04:37:51;;;;;;;;;;;20.30;36.70;;;;;;5077702;28;19920;-49
2022/05/05 04:40:18;;;;;;;;;;;20.30;36.70;;;;;;5077132;28;20027;-50
2022/05/05 04:42:49;;;;;;;;;;;20.30;36.70;;;;;;5083168;28;19920;-49
2022/05/05 04:45:16;;;;;;;;;;;20.30;36.70;;;;;;5058386;28;19963;-47
2022/05/05 04:47:43;;;;;;;;;;;20.30;36.70;;;;;;5078856;28;20399;-47
2022/05/05 04:50:09;;;;;;;;;;;20.30;36.70;;;;;;5060844;28;20399;-50
2022/05/05 04:52:36;;;;;;;;;;;20.30;36.70;;;;;;5076775;28;19943;-48
2022/05/05 04:55:03;;;;;;;;;;;20.30;36.70;;;;;;5078114;28;19974;-46
2022/05/05 04:57:30;;;;;;;;;;;20.30;36.70;;;;;;5061672;28;19921;-48
2022/05/05 04:59:58;;;;;;;;;;;20.30;36.70;;;;;;5061555;28;20338;-47
2022/05/05 05:02:24;;;;;;;;;;;20.30;36.70;;;;;;5065998;28;19973;-52
2022/05/05 05:04:52;;;;;;;;;;;20.30;36.70;;;;;;5098295;28;19927;-48
2022/05/05 05:07:18;;;;;;;;;;;20.30;36.70;;;;;;5079170;28;19970;-50
2022/05/05 05:09:45;;;;;;;;;;;20.30;36.70;;;;;;5077142;28;19979;-47
2022/05/05 05:12:12;;;;;;;;;;;20.30;36.70;;;;;;5062042;28;19982;-48
2022/05/05 05:14:38;;;;;;;;;;;20.30;36.70;;;;;;5082735;28;20023;-48
2022/05/05 05:17:06;;;;;;;;;;;20.30;36.70;;;;;;5062987;28;19920;-47
2022/05/05 05:19:33;;;;;;;;;;;20.30;36.70;;;;;;5081657;28;20357;-47
2022/05/05 05:22:00;;;;;;;;;;;20.30;36.70;;;;;;5081607;28;20018;-47
2022/05/05 05:24:26;;;;;;;;;;;20.30;36.70;;;;;;5081317;28;20361;-48
2022/05/05 05:26:53;;;;;;;;;;;20.30;36.70;;;;;;5081546;28;19920;-49
2022/05/05 05:29:20;;;;;;;;;;;20.30;36.70;;;;;;5099182;28;19966;-48
2022/05/05 05:31:46;;;;;;;;;;;20.30;36.70;;;;;;5077964;28;19920;-47
2022/05/05 05:34:14;;;;;;;;;;;20.30;36.70;;;;;;5057592;28;19968;-50
2022/05/05 05:36:41;;;;;;;;;;;20.30;36.80;;;;;;5057267;28;19983;-53
2022/05/05 05:39:08;;;;;;;;;;;20.30;36.70;;;;;;5057885;28;20016;-49
2022/05/05 05:41:34;;;;;;;;;;;20.30;36.70;;;;;;5057250;28;20251;-51
2022/05/05 05:44:03;;;;;;;;;;;20.20;36.60;;;;;;5075711;28;19970;-48
2022/05/05 05:46:29;;;;;;;;;;;20.30;36.70;;;;;;5080112;28;20252;-53
2022/05/05 05:48:57;;;;;;;;;;;20.30;36.70;;;;;;5080856;28;19958;-49
2022/05/05 05:51:25;;;;;;;;;;;20.30;36.70;;;;;;5098643;28;19920;-50
2022/05/05 05:53:52;;;;;;;;;;;20.30;36.70;;;;;;5059694;28;19927;-49
2022/05/05 05:56:19;;;;;;;;;;;20.30;36.70;;;;;;5059721;28;19974;-50
2022/05/05 05:58:45;;;;;;;;;;;20.30;36.70;;;;;;5059805;28;19921;-51
2022/05/05 06:01:12;;;;;;;;;;;20.30;36.70;;;;;;5077997;28;19927;-49
2022/05/05 06:03:56;;;;;;;;;;;20.30;36.70;;;;;;5057870;28;20329;-51
2022/05/05 06:06:24;;;;;;;;;;;20.30;36.70;;;;;;5060287;28;19920;-46
2022/05/05 06:08:51;;;;;;;;;;;20.30;36.70;;;;;;5067540;28;19920;-49
2022/05/05 06:11:19;;;;;;;;;;;20.30;36.70;;;;;;5097256;28;20356;-53
2022/05/05 06:13:45;;;;;;;;;;;20.30;36.70;;;;;;5079480;28;19924;-50
2022/05/05 06:16:12;;;;;;;;;;;20.30;36.70;;;;;;5098153;28;20333;-51
2022/05/05 06:18:39;;;;;;;;;;;20.30;36.70;;;;;;5080406;28;20030;-49
2022/05/05 06:21:05;;;;;;;;;;;20.30;36.70;;;;;;5080692;28;20018;-49
2022/05/05 06:23:33;;;;;;;;;;;20.30;36.70;;;;;;5079563;28;19951;-51
2022/05/05 06:26:01;;;;;;;;;;;20.30;36.70;;;;;;5079247;28;19926;-51
2022/05/05 06:28:28;;;;;;;;;;;20.30;36.70;;;;;;5079450;28;19920;-54
2022/05/05 06:30:54;;;;;;;;;;;20.30;36.70;;;;;;5095839;28;19973;-55
2022/05/05 06:33:21;;;;;;;;;;;20.30;36.60;;;;;;5078567;28;20015;-56
2022/05/05 06:35:48;;;;;;;;;;;20.30;36.50;;;;;;5079543;28;20253;-52
2022/05/05 06:38:15;;;;;;;;;;;20.30;36.40;;;;;;5078245;28;19920;-52
2022/05/05 06:40:43;;;;;;;;;;;20.30;36.20;;;;;;5096439;28;20349;-51
2022/05/05 06:43:10;;;;;;;;;;;20.30;36.20;;;;;;5080780;28;20072;-51
2022/05/05 06:45:37;;;;;;;;;;;20.30;36.10;;;;;;5078806;28;20290;-53
2022/05/05 06:48:04;;;;;;;;;;;20.30;36.10;;;;;;5078368;28;19920;-53
2022/05/05 06:50:30;;;;;;;;;;;20.30;36.10;;;;;;5079301;28;19966;-54
2022/05/05 06:52:59;;;;;;;;;;;20.20;36.00;;;;;;5079543;28;19927;-53
2022/05/05 06:55:25;;;;;;;;;;;20.20;36.00;;;;;;5078231;28;20014;-52
2022/05/05 06:57:53;;;;;;;;;;;20.20;35.90;;;;;;5078560;28;19920;-54
2022/05/05 07:00:20;;;;;;;;;;;20.20;35.80;;;;;;5078996;28;19920;-55
2022/05/05 07:02:46;;;;;;;;;;;20.20;35.80;;;;;;5096129;28;19920;-52
2022/05/05 07:05:26;;;;;;;;;;;20.20;35.80;;;;;;5079013;28;19920;-53
2022/05/05 07:07:53;;;;;;;;;;;20.20;35.80;;;;;;5078145;28;19963;-53
2022/05/05 07:13:06;;;;;;;;;;;20.20;35.70;;;;;;5079864;28;19919;-53
2022/05/05 07:15:33;;;;;;;;;;;20.20;35.70;;;;;;5094331;28;19920;-54
2022/05/05 07:18:00;;;;;;;;;;;20.20;35.70;;;;;;5077948;28;19920;-51
2022/05/05 07:20:27;;;;;;;;;;;20.20;35.70;;;;;;5077170;28;19936;-52
2022/05/05 07:22:53;;;;;;;;;;;20.10;35.60;;;;;;5076819;28;19951;-47
2022/05/05 07:25:20;;;;;;;;;;;20.10;35.60;;;;;;5095056;28;19927;-55
2022/05/05 07:27:47;;;;;;;;;;;20.10;35.50;;;;;;5094961;28;20011;-53
2022/05/05 07:30:15;;;;;;;;;;;20.10;35.50;;;;;;5078188;28;19930;-52
2022/05/05 07:32:42;;;;;;;;;;;20.10;35.50;;;;;;5077954;28;19973;-52
2022/05/05 07:35:09;;;;;;;;;;;20.10;35.50;;;;;;5077185;28;19920;-51
2022/05/05 07:37:36;;;;;;;;;;;20.10;35.50;;;;;;5094847;28;19920;-46
2022/05/05 07:40:03;;;;;;;;;;;20.10;35.50;;;;;;5078998;28;19927;-50
2022/05/05 07:42:30;;;;;;;;;;;20.10;35.50;;;;;;5077899;28;19928;-47
2022/05/05 07:44:56;;;;;;;;;;;20.10;35.60;;;;;;5078628;28;20246;-49
2022/05/05 07:47:25;;;;;;;;;;;20.10;35.50;;;;;;5078282;28;20269;-52
2022/05/05 07:49:52;;;;;;;;;;;20.10;35.60;;;;;;5078530;28;19919;-53
2022/05/05 07:52:19;;;;;;;;;;;20.10;35.60;;;;;;5077097;28;19920;-53
2022/05/05 07:54:45;;;;;;;;;;;20.10;35.60;;;;;;5095731;28;19920;-54
2022/05/05 07:57:13;;;;;;;;;;;20.10;35.70;;;;;;5077988;28;20036;-48
2022/05/05 07:59:39;;;;;;;;;;;20.10;35.70;;;;;;5077883;28;19924;-51
2022/05/05 08:02:09;;;;;;;;;;;20.10;35.70;;;;;;5078400;28;19955;-50
2022/05/05 08:04:37;;;;;;;;;;;20.10;35.60;;;;;;5078151;28;20012;-51
2022/05/05 08:07:04;;;;;;;;;;;20.10;35.60;;;;;;5078625;28;20356;-53
2022/05/05 08:09:33;;;;;;;;;;;20.10;35.60;;;;;;5078217;28;20335;-51
2022/05/05 08:12:00;;;;;;;;;;;20.10;35.60;;;;;;5077061;28;19926;-55
2022/05/05 08:14:27;;;;;;;;;;;20.10;35.60;;;;;;5078053;28;19981;-51
2022/05/05 08:16:54;;;;;;;;;;;20.10;35.60;;;;;;5078264;28;19927;-49
2022/05/05 08:19:21;;;;;;;;;;;20.10;35.60;;;;;;5077551;28;19962;-50
2022/05/05 08:21:49;;;;;;;;;;;20.10;35.50;;;;;;5094860;28;19921;-51
2022/05/05 08:29:44;;;;;;;;;;;20.10;35.40;;;;;;5078016;28;20337;-54
2022/05/05 08:32:11;;;;;;;;;;;20.10;35.40;;;;;;5096155;28;20430;-54
2022/05/05 08:34:41;;;;;;;;;;;20.10;35.40;;;;;;5077263;28;19927;-52
2022/05/05 08:37:09;;;;;;;;;;;20.10;35.40;;;;;;5077259;28;20315;-53
2022/05/05 08:39:36;;;;;;;;;;;20.10;35.30;;;;;;5094935;28;19919;-49
2022/05/05 08:42:04;;;;;;;;;;;20.10;35.30;;;;;;5077411;28;19920;-52
2022/05/05 08:44:30;;;;;;;;;;;20.10;35.30;;;;;;5077681;28;19973;-55
2022/05/05 08:46:57;;;;;;;;;;;20.10;35.40;;;;;;5094299;28;19954;-53
2022/05/05 08:49:24;;;;;;;;;;;20.10;35.40;;;;;;5077893;28;19920;-51
2022/05/05 08:51:52;;;;;;;;;;;20.10;35.30;;;;;;5095027;28;19924;-51
2022/05/05 08:54:21;;;;;;;;;;;20.10;35.40;;;;;;5077614;28;19920;-51
2022/05/05 08:56:49;;;;;;;;;;;20.10;35.30;;;;;;5093997;28;19923;-52
2022/05/05 08:59:16;;;;;;;;;;;20.10;35.30;;;;;;5077043;28;19921;-53
2022/05/05 09:01:43;;;;;;;;;;;20.10;35.30;;;;;;5077766;28;19993;-49
2022/05/05 09:04:09;;;;;;;;;;;20.10;35.30;;;;;;5093926;28;19973;-50
2022/05/05 09:06:46;;;;;;;;;;;20.10;35.90;;;;;;5077510;28;19959;-54
2022/05/05 09:09:28;;;;;;;;;;;20.10;35.30;;;;;;5077277;28;20273;-55
2022/05/05 09:12:10;;;;;;;;;;;20.10;35.30;;;;;;5095030;28;19920;-54
2022/05/05 09:14:37;;;;;;;;;;;20.10;35.40;;;;;;5078312;28;20345;-55
2022/05/05 09:17:05;;;;;;;;;;;20.10;35.40;;;;;;5095321;28;19927;-51
2022/05/05 09:19:35;;;;;;;;;;;20.10;35.40;;;;;;5077574;28;19920;-53
2022/05/05 09:22:02;;;;;;;;;;;20.10;35.40;;;;;;5078001;28;20248;-54
2022/05/05 09:24:36;;;;;;;;;;;20.10;35.40;;;;;;5094999;28;20369;-52
2022/05/05 09:27:16;;;;;;;;;;;20.10;35.40;;;;;;5076851;28;19950;-50
2022/05/05 09:29:58;;;;;;;;;;;20.10;35.30;;;;;;5076518;28;19924;-53
2022/05/05 09:32:27;;;;;;;;;;;20.10;35.30;;;;;;5076534;28;19966;-53
2022/05/05 09:34:56;;;;;;;;;;;20.10;35.30;;;;;;5080811;28;19920;-52
2022/05/05 09:37:22;;;;;;;;;;;20.10;35.20;;;;;;5080796;28;20027;-55
2022/05/05 09:39:55;;;;;;;;;;;20.10;35.20;;;;;;5080325;28;19969;-54
2022/05/05 09:42:37;;;;;;;;;;;20.10;35.20;;;;;;5080028;28;19920;-51
2022/05/05 09:45:11;;;;;;;;;;;20.10;35.20;;;;;;5098073;28;20014;-50
2022/05/05 09:47:38;;;;;;;;;;;20.00;35.30;;;;;;5080388;28;19920;-55
2022/05/05 09:50:05;;;;;;;;;;;20.10;35.30;;;;;;5097466;28;19939;-55
2022/05/05 09:58:03;;;;;;;;;;;20.00;35.10;;;;;;5079676;28;19920;-52
2022/05/05 10:00:44;;;;;;;;;;;20.00;35.20;;;;;;5060404;28;19974;-53
2022/05/05 10:05:55;;;;;;;;;;;20.00;35.10;;;;;;5077175;28;20380;-52
2022/05/05 10:08:23;;;;;;;;;;;20.00;35.00;;;;;;5076194;28;20354;-52
2022/05/05 10:10:51;;;;;;;;;;;20.00;35.00;;;;;;5059658;28;20027;-55
2022/05/05 10:13:20;;;;;;;;;;;20.00;35.00;;;;;;5059705;28;19985;-54
2022/05/05 10:15:47;;;;;;;;;;;20.00;35.10;;;;;;5059485;28;19921;-55
2022/05/05 10:18:15;;;;;;;;;;;20.00;35.00;;;;;;5059275;28;19921;-51
2022/05/05 10:20:41;;;;;;;;;;;20.00;35.00;;;;;;5058532;28;20249;-55
2022/05/05 10:23:11;;;;;;;;;;;20.00;35.10;;;;;;5074957;28;20273;-53
2022/05/05 10:25:38;;;;;;;;;;;20.00;35.10;;;;;;5058515;28;19927;-53
2022/05/05 10:28:06;;;;;;;;;;;20.00;35.70;;;;;;5058459;28;19924;-52
2022/05/05 10:30:34;;;;;;;;;;;20.00;35.20;;;;;;5057064;28;19947;-50
2022/05/05 10:33:00;;;;;;;;;;;20.00;35.20;;;;;;5058116;28;19924;-52
2022/05/05 10:35:27;;;;;;;;;;;20.00;35.40;;;;;;5057547;28;19963;-52
2022/05/05 10:37:54;;;;;;;;;;;20.00;35.30;;;;;;5057944;28;19987;-49
2022/05/05 10:40:23;;;;;;;;;;;20.00;35.30;;;;;;5059337;28;19924;-54
2022/05/05 10:42:51;;;;;;;;;;;20.00;35.30;;;;;;5075275;28;19963;-53
2022/05/05 10:45:19;;;;;;;;;;;20.00;35.40;;;;;;5074664;28;19967;-54
2022/05/05 10:48:18;;;;;;;;;;;20.00;35.40;;;;;;5058449;28;19943;-51
2022/05/05 10:50:52;;;;;;;;;;;20.00;35.40;;;;;;5059743;28;19943;-52
2022/05/05 10:53:26;;;;;;;;;;;20.00;35.50;;;;;;5058430;28;19920;-52
2022/05/05 10:55:52;;;;;;;;;;;20.00;35.50;;;;;;5058386;28;19955;-52
2022/05/05 10:58:38;;;;;;;;;;;20.00;35.50;;;;;;5077741;28;19920;-54
2022/05/05 11:01:08;;;;;;;;;;;20.00;35.50;;;;;;5076658;28;19967;-54
2022/05/05 11:03:35;;;;;;;;;;;20.00;35.60;;;;;;5058708;28;19921;-54
2022/05/05 11:06:15;;;;;;;;;;;20.10;35.70;;;;;;5074690;28;22694;-54
2022/05/05 11:08:52;;;;;;;;;;;20.10;35.70;;;;;;5075102;28;20258;-51
2022/05/05 11:21:31;;;;;;;;;;;20.10;35.70;;;;;;5058786;28;20261;-50
2022/05/05 11:22:29;;;;;;;;;;;20.10;35.80;;;;;;5075685;28;19928;-51
2022/05/05 11:24:55;;;;;;;;;;;20.10;35.70;;;;;;5057826;28;19967;-54
2022/05/05 11:27:22;;;;;;;;;;;20.10;35.80;;;;;;5075268;28;19962;-52
2022/05/05 11:29:50;;;;;;;;;;;20.10;35.80;;;;;;5057501;28;20297;-50
2022/05/05 11:32:18;;;;;;;;;;;20.10;35.80;;;;;;5075421;28;20394;-53
2022/05/05 11:34:45;;;;;;;;;;;20.10;35.70;;;;;;5073972;28;20333;-51
2022/05/05 11:37:12;;;;;;;;;;;20.10;35.70;;;;;;5058432;28;19970;-53
2022/05/05 11:39:38;;;;;;;;;;;20.10;35.70;;;;;;5058616;28;19969;-51
2022/05/05 11:42:05;;;;;;;;;;;20.10;35.80;;;;;;5058939;28;19925;-54
2022/05/05 11:44:32;;;;;;;;;;;20.10;35.70;;;;;;5058724;28;19921;-52
2022/05/05 11:46:58;;;;;;;;;;;20.10;35.80;;;;;;5075727;28;20319;-48
2022/05/05 11:49:32;;;;;;;;;;;20.10;35.70;;;;;;5075125;28;19932;-54
2022/05/05 11:51:59;;;;;;;;;;;20.10;35.80;;;;;;5058899;28;19920;-54
2022/05/05 11:54:26;;;;;;;;;;;20.10;35.80;;;;;;5057742;28;19920;-50
2022/05/05 11:56:53;;;;;;;;;;;20.10;35.80;;;;;;5074895;28;19920;-52
2022/05/05 12:02:05;;;;;;;;;;;20.10;35.80;;;;;;5057761;28;19925;-45
2022/05/05 12:04:34;;;;;;;;;;;20.10;35.80;;;;;;5076046;28;19940;-46
2022/05/05 12:07:01;;;;;;;;;;;20.10;35.80;;;;;;5058395;28;20376;-45
2022/05/05 12:09:28;;;;;;;;;;;20.10;35.90;;;;;;5059062;28;19935;-45
2022/05/05 12:11:55;;;;;;;;;;;20.20;36.00;;;;;;5056617;28;19943;-45
2022/05/05 12:14:22;;;;;;;;;;;20.20;36.00;;;;;;5056094;28;20296;-50
2022/05/05 12:16:49;;;;;;;;;;;20.20;36.10;;;;;;5057410;28;20011;-46
2022/05/05 12:19:17;;;;;;;;;;;20.20;36.10;;;;;;5058271;28;20002;-47
2022/05/05 12:21:53;;;;;;;;;;;20.20;36.20;;;;;;5059409;28;20388;-51
2022/05/05 12:24:20;;;;;;;;;;;20.20;36.10;;;;;;5057538;28;19970;-49
2022/05/05 12:26:47;;;;;;;;;;;20.20;36.20;;;;;;5058464;28;19921;-47
2022/05/05 12:29:14;;;;;;;;;;;20.30;36.30;;;;;;5076389;28;19967;-45
2022/05/05 12:31:50;;;;;;;;;;;20.30;36.30;;;;;;5058358;28;19921;-46
2022/05/05 12:34:25;;;;;;;;;;;20.30;36.30;;;;;;5057867;28;19920;-47
2022/05/05 12:37:12;;;;;;;;;;;20.30;36.30;;;;;;5057920;28;20271;-49
2022/05/05 12:39:54;;;;;;;;;;;20.30;36.30;;;;;;5060107;28;19927;-48
2022/05/05 12:42:21;;;;;;;;;;;20.30;36.40;;;;;;5057309;28;19946;-48
2022/05/05 12:44:49;;;;;;;;;;;20.30;36.40;;;;;;5044878;28;19920;-49
2022/05/05 12:47:17;;;;;;;;;;;20.40;36.50;;;;;;5061654;28;19920;-47
2022/05/05 12:49:45;;;;;;;;;;;20.40;36.50;;;;;;5076171;28;20351;-45
2022/05/05 13:00:22;;;;;;;;;;;20.40;36.60;;;;;;5076835;28;19927;-48
2022/05/05 13:02:48;;;;;;;;;;;20.40;36.60;;;;;;5058543;28;19936;-47
2022/05/05 13:05:15;;;;;;;;;;;20.40;36.60;;;;;;5076846;28;20294;-45
2022/05/05 13:07:43;;;;;;;;;;;20.40;36.70;;;;;;5083631;28;20342;-47
2022/05/05 13:10:10;;;;;;;;;;;20.40;36.70;;;;;;5062361;28;19974;-45
2022/05/05 13:12:37;;;;;;;;;;;20.40;36.70;;;;;;5064108;28;19920;-45
2022/05/05 13:15:04;;;;;;;;;;;20.40;36.70;;;;;;5061674;28;20409;-49
2022/05/05 13:17:31;;;;;;;;;;;20.50;36.80;;;;;;5080306;28;19920;-52
2022/05/05 13:20:00;;;;;;;;;;;20.40;36.70;;;;;;5079730;28;19936;-48
2022/05/05 13:22:29;;;;;;;;;;;20.50;36.80;;;;;;5062511;28;20064;-45
2022/05/05 13:24:57;;;;;;;;;;;20.50;36.70;;;;;;5061620;28;19928;-49
2022/05/05 13:27:24;;;;;;;;;;;20.50;36.80;;;;;;5062783;28;19970;-45
2022/05/05 13:29:50;;;;;;;;;;;20.50;36.80;;;;;;5060275;28;19974;-52
2022/05/05 13:32:17;;;;;;;;;;;20.50;36.80;;;;;;5075985;28;19920;-50
2022/05/05 13:34:44;;;;;;;;;;;20.50;36.80;;;;;;5059565;28;20304;-51
2022/05/05 13:37:11;;;;;;;;;;;20.50;36.80;;;;;;5059595;28;20383;-51
2022/05/05 13:39:38;;;;;;;;;;;20.50;36.70;;;;;;5056333;28;19920;-52
2022/05/05 13:42:06;;;;;;;;;;;20.50;36.60;;;;;;5079613;28;19958;-54
2022/05/05 13:44:33;;;;;;;;;;;20.50;36.60;;;;;;5080122;28;19919;-54
2022/05/05 13:46:59;;;;;;;;;;;20.50;36.60;;;;;;5080049;28;19961;-50
2022/05/05 13:49:26;;;;;;;;;;;20.50;36.50;;;;;;5079647;28;19985;-51
2022/05/05 13:51:53;;;;;;;;;;;20.50;36.40;;;;;;5098202;28;19920;-52
2022/05/05 13:54:19;;;;;;;;;;;20.50;36.40;;;;;;5097721;28;19920;-54
2022/05/05 13:56:46;;;;;;;;;;;20.50;36.40;;;;;;5069599;28;19975;-53
2022/05/05 13:59:14;;;;;;;;;;;20.50;36.40;;;;;;5074642;28;19927;-53
2022/05/05 14:01:40;;;;;;;;;;;20.50;36.40;;;;;;5060079;28;19921;-51
2022/05/05 14:04:07;;;;;;;;;;;20.50;36.40;;;;;;5077294;28;19960;-50
2022/05/05 14:06:34;;;;;;;;;;;20.50;36.40;;;;;;5059541;28;20027;-51
2022/05/05 14:14:30;;;;;;;;;;;20.50;36.30;;;;;;5059900;28;19928;-52
2022/05/05 14:16:57;;;;;;;;;;;20.50;36.30;;;;;;5075175;28;20253;-54
2022/05/05 14:19:23;;;;;;;;;;;20.50;36.30;;;;;;5075812;28;19974;-51
2022/05/05 14:21:50;;;;;;;;;;;20.50;36.30;;;;;;5076303;28;19987;-47
2022/05/05 14:24:17;;;;;;;;;;;20.50;36.30;;;;;;5075694;28;19920;-49
2022/05/05 14:26:45;;;;;;;;;;;20.50;36.30;;;;;;5075590;28;19930;-52
2022/05/05 14:29:12;;;;;;;;;;;20.50;36.30;;;;;;5075979;28;20383;-54
2022/05/05 14:31:40;;;;;;;;;;;20.50;36.30;;;;;;5076486;28;20262;-54
2022/05/05 14:34:09;;;;;;;;;;;20.50;36.30;;;;;;5075683;28;20288;-53
2022/05/05 14:36:35;;;;;;;;;;;20.50;36.30;;;;;;5075529;28;19921;-54
2022/05/05 14:39:02;;;;;;;;;;;20.50;36.30;;;;;;5073593;28;19972;-51
2022/05/05 14:41:29;;;;;;;;;;;20.50;36.30;;;;;;5037162;28;20278;-50
2022/05/05 14:43:55;;;;;;;;;;;20.50;36.20;;;;;;5039284;28;19979;-48
2022/05/05 14:46:23;;;;;;;;;;;20.50;36.30;;;;;;5055837;28;20419;-54
2022/05/05 14:48:51;;;;;;;;;;;20.50;36.30;;;;;;5075869;28;19966;-53
2022/05/05 14:51:18;;;;;;;;;;;20.50;36.30;;;;;;5060174;28;20011;-52
2022/05/05 14:53:45;;;;;;;;;;;20.50;36.30;;;;;;5058608;28;19925;-54
2022/05/05 14:56:11;;;;;;;;;;;20.50;36.30;;;;;;5076494;28;19927;-54
2022/05/05 14:58:38;;;;;;;;;;;20.50;36.30;;;;;;5056724;28;19947;-52
2022/05/05 15:01:05;;;;;;;;;;;20.50;36.40;;;;;;5058452;28;20388;-49
2022/05/05 15:03:31;;;;;;;;;;;20.50;36.40;;;;;;5056186;28;20286;-54
2022/05/05 15:06:00;;;;;;;;;;;20.50;36.40;;;;;;5057669;28;19927;-53
2022/05/05 15:08:27;;;;;;;;;;;20.50;36.40;;;;;;5074762;28;19927;-54
2022/05/05 15:10:53;;;;;;;;;;;20.50;36.40;;;;;;5076139;28;19920;-54
2022/05/05 15:13:21;;;;;;;;;;;20.50;36.50;;;;;;5059205;28;20399;-53